createdAt,value
2023-04-07T00:02:57.391Z,22.5
2023-04-07T00:08:15.990Z,22.5
2023-04-07T00:13:34.363Z,22.5
2023-04-07T00:18:52.486Z,22.5
2023-04-07T00:24:12.994Z,22.5
2023-04-07T00:29:49.092Z,22.5
2023-04-07T00:35:07.459Z,22.5
2023-04-07T00:40:25.677Z,22.5
2023-04-07T00:45:44.252Z,22.5
2023-04-07T00:51:02.413Z,22.5
2023-04-07T00:56:20.431Z,22.5
2023-04-07T01:01:39.007Z,22.5
2023-04-07T01:06:57.842Z,22.5
2023-04-07T01:12:16.040Z,22.5
2023-04-07T01:17:34.249Z,22.5
2023-04-07T01:22:52.285Z,22.5
2023-04-07T01:28:10.577Z,22.5
2023-04-07T01:33:29.018Z,22.5
2023-04-07T01:38:47.418Z,22.5
2023-04-07T01:44:05.857Z,22.5
2023-04-07T01:49:24.261Z,22.5
2023-04-07T01:54:42.426Z,22.5
2023-04-07T02:00:00.645Z,22.5
2023-04-07T02:05:18.847Z,22.5
2023-04-07T02:10:37.239Z,22.5
2023-04-07T02:15:55.636Z,22.5
2023-04-07T02:21:13.787Z,22.5
2023-04-07T02:26:33.334Z,22.5
2023-04-07T02:31:53.509Z,22.6
2023-04-07T02:37:11.898Z,22.5
2023-04-07T02:42:30.432Z,22.6
2023-04-07T02:47:48.837Z,22.6
2023-04-07T02:53:07.144Z,22.6
2023-04-07T02:58:25.325Z,22.6
2023-04-07T03:03:43.708Z,22.6
2023-04-07T03:09:02.324Z,22.6
2023-04-07T03:14:20.534Z,22.6
2023-04-07T03:19:39.026Z,22.5
2023-04-07T03:24:57.181Z,22.6
2023-04-07T03:30:15.713Z,22.6
2023-04-07T03:35:33.973Z,22.6
2023-04-07T03:40:52.355Z,22.6
2023-04-07T03:46:10.365Z,22.6
2023-04-07T03:51:13.186Z,22.6
2023-04-07T03:56:31.375Z,22.6
2023-04-07T04:01:49.894Z,22.6
2023-04-07T04:07:08.212Z,22.6
2023-04-07T04:12:26.353Z,22.6
2023-04-07T04:17:44.621Z,22.6
2023-04-07T04:23:02.984Z,22.5
2023-04-07T04:28:21.402Z,22.5
2023-04-07T04:33:24.140Z,22.6
2023-04-07T04:38:42.528Z,22.6
2023-04-07T04:44:00.703Z,22.6
2023-04-07T04:49:18.888Z,22.4
2023-04-07T04:54:37.639Z,22
2023-04-07T04:59:56.032Z,22.1
2023-04-07T05:05:14.963Z,22.2
2023-04-07T05:10:33.415Z,22.2
2023-04-07T05:15:52.380Z,22.2
2023-04-07T05:21:10.941Z,22.2
2023-04-07T05:26:28.971Z,22.2
2023-04-07T05:31:47.464Z,22.2
2023-04-07T05:37:05.673Z,22.3
2023-04-07T05:42:23.902Z,22.3
2023-04-07T05:47:42.151Z,22.3
2023-04-07T05:53:00.620Z,22.3
2023-04-07T05:58:18.843Z,22.3
2023-04-07T06:03:37.363Z,22.3
2023-04-07T06:08:55.922Z,22.3
2023-04-07T06:14:14.476Z,22.3
2023-04-07T06:19:32.766Z,22.4
2023-04-07T06:24:51.178Z,22.4
2023-04-07T06:30:09.601Z,22.4
2023-04-07T06:35:28.002Z,22.4
2023-04-07T06:40:47.673Z,22.4
2023-04-07T06:46:06.166Z,22.4
2023-04-07T06:51:24.389Z,22.5
2023-04-07T06:56:42.804Z,22.5
2023-04-07T07:02:01.913Z,22.5
2023-04-07T07:07:20.208Z,22.5
2023-04-07T07:12:38.628Z,22.5
2023-04-07T07:17:57.203Z,22.6
2023-04-07T07:23:15.308Z,22.6
2023-04-07T07:28:33.860Z,22.6
2023-04-07T07:33:52.061Z,22.6
2023-04-07T07:39:10.249Z,22.6
2023-04-07T07:44:32.036Z,22.6
2023-04-07T07:49:51.060Z,22.6
2023-04-07T07:55:09.212Z,22.6
2023-04-07T08:00:27.571Z,22.6
2023-04-07T08:05:46.063Z,22.6
2023-04-07T08:11:04.648Z,22.6
2023-04-07T08:16:22.983Z,22.6
2023-04-07T08:21:41.039Z,22.6
2023-04-07T08:26:59.436Z,22.6
2023-04-07T08:32:17.978Z,22.7
2023-04-07T08:37:36.397Z,22.7
2023-04-07T08:42:54.550Z,22.7
2023-04-07T08:48:12.867Z,22.7
2023-04-07T08:53:31.339Z,22.7
2023-04-07T08:58:49.604Z,22.7
2023-04-07T09:04:08.744Z,22.7
2023-04-07T09:09:27.108Z,22.7
2023-04-07T09:14:45.275Z,22.7
2023-04-07T09:20:03.717Z,22.8
2023-04-07T09:25:22.201Z,22.8
2023-04-07T09:30:40.189Z,22.8
2023-04-07T09:35:58.679Z,22.8
2023-04-07T09:41:17.362Z,22.8
2023-04-07T09:46:35.899Z,22.8
2023-04-07T09:51:38.426Z,22.8
2023-04-07T09:56:57.062Z,22.8
2023-04-07T10:02:15.211Z,22.8
2023-04-07T10:07:33.566Z,22.8
2023-04-07T10:12:51.972Z,22.8
2023-04-07T10:18:10.335Z,22.8
2023-04-07T10:23:28.670Z,22.8
2023-04-07T10:28:47.103Z,22.8
2023-04-07T10:34:05.473Z,22.8
2023-04-07T10:39:24.171Z,22.8
2023-04-07T10:44:42.928Z,22.8
2023-04-07T10:50:01.337Z,22.8
2023-04-07T10:55:19.645Z,22.8
2023-04-07T11:00:38.045Z,22.8
2023-04-07T11:05:56.439Z,22.8
2023-04-07T11:11:14.381Z,22.8
2023-04-07T11:16:32.844Z,22.8
2023-04-07T11:21:51.670Z,22.8
2023-04-07T11:27:14.106Z,22.8
2023-04-07T11:32:35.549Z,22.8
2023-04-07T11:37:53.964Z,22.9
2023-04-07T11:43:12.123Z,22.8
2023-04-07T11:48:32.487Z,22.9
2023-04-07T11:53:51.205Z,22.9
2023-04-07T11:59:09.343Z,22.9
2023-04-07T12:04:27.807Z,22.9
2023-04-07T12:09:46.399Z,22.9
2023-04-07T12:15:04.833Z,22.9
2023-04-07T12:20:23.302Z,22.9
2023-04-07T12:25:41.763Z,22.9
2023-04-07T12:31:00.144Z,22.9
2023-04-07T12:36:21.516Z,22.9
2023-04-07T12:41:40.448Z,22.9
2023-04-07T12:46:58.457Z,22.9
2023-04-07T12:52:17.341Z,22.9
2023-04-07T12:57:35.745Z,22.9
2023-04-07T13:02:54.385Z,22.9
2023-04-07T13:08:13.260Z,22.9
2023-04-07T13:13:31.571Z,22.9
2023-04-07T13:18:50.069Z,22.9
2023-04-07T13:23:52.861Z,22.9
2023-04-07T13:29:11.108Z,22.9
2023-04-07T13:34:32.353Z,22.9
2023-04-07T13:39:50.933Z,22.9
2023-04-07T13:45:09.477Z,22.9
2023-04-07T13:50:27.719Z,22.9
2023-04-07T13:55:46.116Z,22.9
2023-04-07T14:01:04.317Z,22.9
2023-04-07T14:06:22.666Z,22.7
2023-04-07T14:11:41.380Z,22.8
2023-04-07T14:16:59.777Z,22.8
2023-04-07T14:22:02.296Z,22.8
2023-04-07T14:27:20.790Z,22.8
2023-04-07T14:32:39.607Z,22.8
2023-04-07T14:37:58.239Z,22.8
2023-04-07T14:43:16.887Z,22.8
2023-04-07T14:48:35.330Z,22.8
2023-04-07T14:53:59.519Z,22.8
2023-04-07T14:59:17.755Z,22.8
2023-04-07T15:04:36.128Z,22.8
2023-04-07T15:09:55.012Z,22.8
2023-04-07T15:15:13.223Z,22.8
2023-04-07T15:20:31.577Z,22.8
2023-04-07T15:25:51.105Z,22.8
2023-04-07T15:31:09.524Z,22.8
2023-04-07T15:36:28.236Z,22.8
2023-04-07T15:41:53.240Z,22.8
2023-04-07T15:46:56.074Z,22.8
2023-04-07T15:52:14.109Z,22.8
2023-04-07T15:57:32.088Z,22.8
2023-04-07T16:02:50.564Z,22.8
2023-04-07T16:08:09.735Z,22.8
2023-04-07T16:13:31.902Z,22.8
2023-04-07T16:18:50.339Z,22.8
2023-04-07T16:24:08.673Z,22.8
2023-04-07T16:29:27.288Z,22.8
2023-04-07T16:34:45.697Z,22.8
2023-04-07T16:40:04.236Z,22.8
2023-04-07T16:45:22.510Z,22.8
2023-04-07T16:50:40.915Z,22.8
2023-04-07T16:55:59.194Z,22.8
2023-04-07T17:01:17.587Z,22.8
2023-04-07T17:06:35.877Z,22.8
2023-04-07T17:11:54.239Z,22.8
2023-04-07T17:17:12.740Z,22.8
2023-04-07T17:22:31.327Z,22.8
2023-04-07T17:27:49.496Z,22.8
2023-04-07T17:33:08.052Z,22.8
2023-04-07T17:38:26.837Z,22.8
2023-04-07T17:43:45.422Z,22.8
2023-04-07T17:49:03.898Z,22.8
2023-04-07T17:54:22.112Z,22.8
2023-04-07T17:59:40.500Z,22.8
2023-04-07T18:04:58.635Z,22.8
2023-04-07T18:10:17.168Z,22.8
2023-04-07T18:15:35.459Z,22.8
2023-04-07T18:20:53.731Z,22.8
2023-04-07T18:26:12.607Z,22.8
2023-04-07T18:31:31.273Z,22.8
2023-04-07T18:36:49.400Z,22.8
2023-04-07T18:42:07.786Z,22.8
2023-04-07T18:47:25.851Z,22.8
2023-04-07T18:52:44.210Z,22.8
2023-04-07T18:58:02.728Z,22.8
2023-04-07T19:03:21.342Z,22.8
2023-04-07T19:08:40.020Z,22.8
2023-04-07T19:13:58.615Z,22.8
2023-04-07T19:19:16.793Z,22.8
2023-04-07T19:24:35.145Z,22.8
2023-04-07T19:29:54.261Z,22.8
2023-04-07T19:35:12.283Z,22.8
2023-04-07T19:40:33.367Z,22.8
2023-04-07T19:45:51.687Z,22.8
2023-04-07T19:51:09.797Z,22.8
2023-04-07T19:56:28.391Z,22.8
2023-04-07T20:01:47.111Z,22.8
2023-04-07T20:07:06.944Z,22.8
2023-04-07T20:12:25.253Z,22.8
2023-04-07T20:17:44.743Z,22.8
2023-04-07T20:22:47.847Z,22.8
2023-04-07T20:28:06.178Z,22.8
2023-04-07T20:33:24.388Z,22.9
2023-04-07T20:38:42.708Z,22.9
2023-04-07T20:44:00.725Z,22.9
2023-04-07T20:49:18.954Z,22.9
2023-04-07T20:54:36.941Z,22.9
2023-04-07T20:59:55.317Z,22.9
2023-04-07T21:05:13.498Z,22.9
2023-04-07T21:10:31.682Z,22.9
2023-04-07T21:15:49.908Z,22.9
2023-04-07T21:21:07.974Z,22.9
2023-04-07T21:26:26.115Z,22.9
2023-04-07T21:31:44.694Z,22.9
2023-04-07T21:37:03.304Z,22.9
2023-04-07T21:42:21.426Z,22.9
2023-04-07T21:47:39.667Z,22.9
2023-04-07T21:52:58.146Z,22.9
2023-04-07T21:58:16.383Z,22.9
2023-04-07T22:03:35.332Z,22.9
2023-04-07T22:09:02.583Z,22.8
2023-04-07T22:14:20.968Z,22.9
2023-04-07T22:19:39.290Z,22.8
2023-04-07T22:24:57.697Z,22.8
2023-04-07T22:30:16.022Z,22.9
2023-04-07T22:35:34.204Z,22.8
2023-04-07T22:40:52.471Z,22.8
2023-04-07T22:46:10.628Z,22.8
2023-04-07T22:51:28.774Z,22.8
2023-04-07T22:56:46.952Z,22.8
2023-04-07T23:02:05.284Z,22.8
2023-04-07T23:07:23.505Z,22.8
2023-04-07T23:12:41.926Z,22.9
2023-04-07T23:18:00.326Z,22.8
2023-04-07T23:23:18.639Z,22.9
2023-04-07T23:28:37.013Z,22.9
2023-04-07T23:33:55.022Z,22.9
2023-04-07T23:39:13.224Z,22.9
2023-04-07T23:44:31.404Z,22.9
2023-04-07T23:49:49.612Z,22.9
2023-04-07T23:55:07.953Z,22.9
